Waf_motion — 4RBK — position and weather

sailwx.info

Track history (hours):
 
Tides and Currents Weather Stations Pressure Air Temp Water Temp Dewpoint Dewpoint Depression Visibility Wind Speed Wind Dir Waves Ship Positions

Waf_motion

Last reported at 2015-Jun-11 14:32 UTC. Time now 2015-Jul-01 21:10 UTC.
Position N 38°14' W 010°00'.
Warning: this ship's position is 20 days out of date.

Length 140 m; draft 7.1 m.

Type: Ship (hazmat cat A). MMSI: 417222324.

Date/timePositionNaut miles runAvg speedWind from/ knotsBaromVisibWave heightAir tempDewpointWater temp
2015-Jun-11 14:32N 38°14' W 010°00'1713.3
2015-Jun-11 13:15N 38°31' W 010°04'2312.9
2015-Jun-11 11:30N 38°54' W 010°07'1213.3
2015-Jun-11 10:33N 39°06' W 010°07'35110.0
2015-Jun-09 23:30N 43°51' W 005°34'1513.2
2015-Jun-09 22:20N 43°49' W 005°13'  
2015-Jun-07 04:31N 47°16' W 005°32'227 9.8
2015-Jun-06 05:17N 49°58' W 001°33'2815.8
2015-Jun-06 03:29N 49°45' W 000°54'1414.6
2015-Jun-06 02:33N 49°38' W 000°36'1313.1
2015-Jun-06 01:33N 49°33' W 000°18'1211.9
2015-Jun-06 00:33N 49°28' W 000°01'1010.0
2015-Jun-05 23:33N 49°26' E 000°14'9 8.9
2015-Jun-05 22:33N 49°28' E 000°28'7 6.8
2015-Jun-05 21:33N 49°26' E 000°37'8 6.6
2015-Jun-05 20:23N 49°27' E 000°49'6 0.2
2015-Jun-04 13:06N 49°29' E 000°40'5 8.9
2015-Jun-04 12:34N 49°27' E 000°33'1111.1
2015-Jun-04 11:34N 49°26' E 000°16'1211.8
2015-Jun-04 10:34N 49°29' W 000°01'1111.2
2015-Jun-04 09:33N 49°31' W 000°18'1312.5
2015-Jun-04 08:33N 49°44' W 000°23'2713.4
2015-Jun-04 06:33N 50°10' W 000°22'2812.6
2015-Jun-04 04:21N 50°30' E 000°08'1214.7
2015-Jun-04 03:33N 50°33' E 000°27'1413.8
2015-Jun-04 02:33N 50°39' E 000°46'1313.0
2015-Jun-04 01:33N 50°46' E 001°03'1211.5
2015-Jun-04 00:32N 50°54' E 001°17'1110.9
2015-Jun-03 23:34N 51°02' E 001°28'1212.0
2015-Jun-03 22:33N 51°10' E 001°42'1414.4
2015-Jun-03 21:34N 51°22' E 001°56'1211.6
2015-Jun-03 20:33N 51°21' E 002°14'1414.1
2015-Jun-03 19:34N 51°23' E 002°37'1212.5
2015-Jun-03 18:33N 51°23' E 002°57'1413.8
2015-Jun-03 17:33N 51°24' E 003°19'1313.4
2015-Jun-03 16:33N 51°26' E 003°40'1111.0
2015-Jun-03 15:33N 51°23' E 003°57'7 7.2
2015-Jun-03 14:32N 51°22' E 004°08'6 5.3
2015-Jun-03 13:26N 51°21' E 004°17'0 0.0
2015-Jun-03 12:32N 51°21' E 004°17'4 4.4
2015-Jun-03 11:33N 51°17' E 004°21'3 3.1
2015-Jun-03 10:33N 51°15' E 004°24'0 0.0
2015-Jun-03 09:33N 51°15' E 004°24'0 0.0
2015-Jun-03 08:33N 51°15' E 004°24'0 0.0
2015-Jun-03 07:33N 51°15' E 004°24'0 0.0
2015-Jun-03 06:33N 51°15' E 004°24'0 0.0
2015-Jun-03 05:33N 51°15' E 004°24'0 0.0
2015-Jun-03 04:33N 51°15' E 004°24'0 0.0
2015-Jun-03 03:33N 51°15' E 004°24'0 0.0
2015-Jun-03 02:33N 51°15' E 004°24'0 0.0
2015-Jun-03 01:33N 51°15' E 004°24'0 0.0
2015-Jun-03 00:33N 51°15' E 004°24'0 0.0
2015-Jun-02 23:33N 51°15' E 004°24'0 0.0
2015-Jun-02 22:33N 51°15' E 004°24'0 0.0
2015-Jun-02 21:33N 51°15' E 004°24'0 0.0
2015-Jun-02 20:33N 51°15' E 004°24'0 0.0
2015-Jun-02 19:33N 51°15' E 004°24'0 0.0
2015-Jun-02 18:33N 51°15' E 004°24'0 0.0
2015-Jun-02 17:33N 51°15' E 004°24'0 0.0
2015-Jun-02 16:33N 51°15' E 004°24'0 0.0
2015-Jun-02 15:33N 51°15' E 004°24'0 0.0
2015-Jun-02 14:33N 51°15' E 004°24'0 0.0
2015-Jun-02 13:33N 51°15' E 004°24'0 0.0
2015-Jun-02 12:33N 51°15' E 004°24'0 0.0
2015-Jun-02 11:33N 51°15' E 004°24'0 0.0
2015-Jun-02 10:33N 51°15' E 004°24'0 0.0
2015-Jun-02 09:33N 51°15' E 004°24'0 0.0
2015-Jun-02 08:33N 51°15' E 004°24'0 0.0
2015-Jun-02 07:33N 51°15' E 004°24'0 0.0
2015-Jun-02 06:33N 51°15' E 004°24'0 0.0
2015-Jun-02 05:33N 51°15' E 004°24'0 0.0
2015-Jun-02 04:33N 51°15' E 004°24'0 0.0
2015-Jun-02 03:33N 51°15' E 004°24'0 0.0
2015-Jun-02 02:33N 51°15' E 004°24'0 0.0
2015-Jun-02 01:33N 51°15' E 004°24'0 0.0
2015-Jun-02 00:33N 51°15' E 004°24'0 0.0
2015-Jun-01 23:33N 51°15' E 004°24'0 0.0
2015-Jun-01 22:33N 51°15' E 004°24'0 0.0
2015-Jun-01 21:33N 51°15' E 004°24'0 0.0
2015-Jun-01 20:33N 51°15' E 004°24'0 0.0
2015-Jun-01 19:33N 51°15' E 004°24'0 0.0
2015-Jun-01 18:30N 51°15' E 004°24'0 0.0
2015-Jun-01 17:33N 51°15' E 004°24'0 0.0
2015-Jun-01 16:33N 51°15' E 004°24'0 0.0
2015-Jun-01 15:33N 51°15' E 004°24'0 0.0
2015-Jun-01 14:33N 51°15' E 004°24'  
Track history (hours):
 
Tides and Currents Weather Stations Pressure Air Temp Water Temp Dewpoint Dewpoint Depression Visibility Wind Speed Wind Dir Waves Ship Positions

Waf_motion

Last reported at 2015-Jun-11 14:32 UTC. Time now 2015-Jul-01 21:10 UTC.
Position N 38°14' W 010°00'.
Warning: this ship's position is 20 days out of date.

Length 140 m; draft 7.1 m.

Type: Ship (hazmat cat A). MMSI: 417222324.

Date/timePositionNaut miles runAvg speedWind from/ knotsBaromVisibWave heightAir tempDewpointWater temp
2015-Jun-11 14:32N 38°14' W 010°00'1713.3
2015-Jun-11 13:15N 38°31' W 010°04'2312.9
2015-Jun-11 11:30N 38°54' W 010°07'1213.3
2015-Jun-11 10:33N 39°06' W 010°07'35110.0
2015-Jun-09 23:30N 43°51' W 005°34'1513.2
2015-Jun-09 22:20N 43°49' W 005°13'  
2015-Jun-07 04:31N 47°16' W 005°32'227 9.8
2015-Jun-06 05:17N 49°58' W 001°33'2815.8
2015-Jun-06 03:29N 49°45' W 000°54'1414.6
2015-Jun-06 02:33N 49°38' W 000°36'1313.1
2015-Jun-06 01:33N 49°33' W 000°18'1211.9
2015-Jun-06 00:33N 49°28' W 000°01'1010.0
2015-Jun-05 23:33N 49°26' E 000°14'9 8.9
2015-Jun-05 22:33N 49°28' E 000°28'7 6.8
2015-Jun-05 21:33N 49°26' E 000°37'8 6.6
2015-Jun-05 20:23N 49°27' E 000°49'6 0.2
2015-Jun-04 13:06N 49°29' E 000°40'5 8.9
2015-Jun-04 12:34N 49°27' E 000°33'1111.1
2015-Jun-04 11:34N 49°26' E 000°16'1211.8
2015-Jun-04 10:34N 49°29' W 000°01'1111.2
2015-Jun-04 09:33N 49°31' W 000°18'1312.5
2015-Jun-04 08:33N 49°44' W 000°23'2713.4
2015-Jun-04 06:33N 50°10' W 000°22'2812.6
2015-Jun-04 04:21N 50°30' E 000°08'1214.7
2015-Jun-04 03:33N 50°33' E 000°27'1413.8
2015-Jun-04 02:33N 50°39' E 000°46'1313.0
2015-Jun-04 01:33N 50°46' E 001°03'1211.5
2015-Jun-04 00:32N 50°54' E 001°17'1110.9
2015-Jun-03 23:34N 51°02' E 001°28'1212.0
2015-Jun-03 22:33N 51°10' E 001°42'1414.4
2015-Jun-03 21:34N 51°22' E 001°56'1211.6
2015-Jun-03 20:33N 51°21' E 002°14'1414.1
2015-Jun-03 19:34N 51°23' E 002°37'1212.5
2015-Jun-03 18:33N 51°23' E 002°57'1413.8
2015-Jun-03 17:33N 51°24' E 003°19'1313.4
2015-Jun-03 16:33N 51°26' E 003°40'1111.0
2015-Jun-03 15:33N 51°23' E 003°57'7 7.2
2015-Jun-03 14:32N 51°22' E 004°08'6 5.3
2015-Jun-03 13:26N 51°21' E 004°17'0 0.0
2015-Jun-03 12:32N 51°21' E 004°17'4 4.4
2015-Jun-03 11:33N 51°17' E 004°21'3 3.1
2015-Jun-03 10:33N 51°15' E 004°24'0 0.0
2015-Jun-03 09:33N 51°15' E 004°24'0 0.0
2015-Jun-03 08:33N 51°15' E 004°24'0 0.0
2015-Jun-03 07:33N 51°15' E 004°24'0 0.0
2015-Jun-03 06:33N 51°15' E 004°24'0 0.0
2015-Jun-03 05:33N 51°15' E 004°24'0 0.0
2015-Jun-03 04:33N 51°15' E 004°24'0 0.0
2015-Jun-03 03:33N 51°15' E 004°24'0 0.0
2015-Jun-03 02:33N 51°15' E 004°24'0 0.0
2015-Jun-03 01:33N 51°15' E 004°24'0 0.0
2015-Jun-03 00:33N 51°15' E 004°24'0 0.0
2015-Jun-02 23:33N 51°15' E 004°24'0 0.0
2015-Jun-02 22:33N 51°15' E 004°24'0 0.0
2015-Jun-02 21:33N 51°15' E 004°24'0 0.0
2015-Jun-02 20:33N 51°15' E 004°24'0 0.0
2015-Jun-02 19:33N 51°15' E 004°24'0 0.0
2015-Jun-02 18:33N 51°15' E 004°24'0 0.0
2015-Jun-02 17:33N 51°15' E 004°24'0 0.0
2015-Jun-02 16:33N 51°15' E 004°24'0 0.0
2015-Jun-02 15:33N 51°15' E 004°24'0 0.0
2015-Jun-02 14:33N 51°15' E 004°24'0 0.0
2015-Jun-02 13:33N 51°15' E 004°24'0 0.0
2015-Jun-02 12:33N 51°15' E 004°24'0 0.0
2015-Jun-02 11:33N 51°15' E 004°24'0 0.0
2015-Jun-02 10:33N 51°15' E 004°24'0 0.0
2015-Jun-02 09:33N 51°15' E 004°24'0 0.0
2015-Jun-02 08:33N 51°15' E 004°24'0 0.0
2015-Jun-02 07:33N 51°15' E 004°24'0 0.0
2015-Jun-02 06:33N 51°15' E 004°24'0 0.0
2015-Jun-02 05:33N 51°15' E 004°24'0 0.0
2015-Jun-02 04:33N 51°15' E 004°24'0 0.0
2015-Jun-02 03:33N 51°15' E 004°24'0 0.0
2015-Jun-02 02:33N 51°15' E 004°24'0 0.0
2015-Jun-02 01:33N 51°15' E 004°24'0 0.0
2015-Jun-02 00:33N 51°15' E 004°24'0 0.0
2015-Jun-01 23:33N 51°15' E 004°24'0 0.0
2015-Jun-01 22:33N 51°15' E 004°24'0 0.0
2015-Jun-01 21:33N 51°15' E 004°24'0 0.0
2015-Jun-01 20:33N 51°15' E 004°24'0 0.0
2015-Jun-01 19:33N 51°15' E 004°24'0 0.0
2015-Jun-01 18:30N 51°15' E 004°24'0 0.0
2015-Jun-01 17:33N 51°15' E 004°24'0 0.0
2015-Jun-01 16:33N 51°15' E 004°24'0 0.0
2015-Jun-01 15:33N 51°15' E 004°24'0 0.0
2015-Jun-01 14:33N 51°15' E 004°24'  

Dump ship's entire track history